Flight Track Log - Related Links

Times and Time Zones

All times are in EDT time to prevent confusion due to time zone crossing. See the N934DL flight status page for this flight to view local times or setup timezone preferences in your user account.

Time Position Orientation Groundspeed Altitude Reporting Facility
EDT Latitude Longitude Course Direction KTS MPH feet Rate Location/Type
Fri 10:55:47 AM 42.2081 -83.3508 98° East 149 171 1,300  Level FAA TRACON SMA TRACON (SMA)
Fri 10:56:07 AM 42.1958 -83.3556 196° South 177 204 1,900 2,100 Climbing FAA TRACON SMA TRACON (SMA)
Fri 10:56:27 AM 42.1761 -83.3592 188° South 202 232 2,700 2,100 Climbing FAA TRACON SMA TRACON (SMA)
Fri 10:56:47 AM 42.1578 -83.3628 188° South 230 265 3,300 2,923 Climbing FAA TRACON SMA TRACON (SMA)
Fri 10:57:06 AM 42.1339 -83.3675 188° South 238 274 4,600 3,538 Climbing FAA TRACON SMA TRACON (SMA)
Fri 10:57:26 AM 42.1147 -83.3706 187° South 242 278 5,600 4,050 Climbing FAA TRACON SMA TRACON (SMA)
Fri 10:57:46 AM 42.0906 -83.3708 180° South 232 267 7,300 4,050 Climbing FAA TRACON SMA TRACON (SMA)
Fri 10:58:00 AM 42.1446 -82.9176 98° East  Level FlightAware Approximate
Fri 10:58:06 AM 42.0769 -83.3644 161° South 233 268 8,300  Level FAA TRACON SMA TRACON (SMA)
Fri 10:58:26 AM 42.0614 -83.3219 116° Southeast 290 334 9,500 2,400 Climbing FAA TRACON SMA TRACON (SMA)
Fri 10:58:46 AM 42.0564 -83.2889 102° East 308 354 9,900 750 Climbing FAA TRACON SMA TRACON (SMA)
Fri 10:59:00 AM 42.1225 -82.7731 109° East  Level FlightAware Approximate
Fri 10:59:06 AM 42.0564 -83.2519 90° East 329 379 10,000  Level FAA TRACON SMA TRACON (SMA)
Fri 10:59:26 AM 42.0581 -83.2017 87° East 363 418 10,100 150 Climbing FAA TRACON SMA TRACON (SMA)
Fri 10:59:46 AM 42.0597 -83.1572 87° East 399 459 10,100 900 Level FAA TRACON SMA TRACON (SMA)
Fri 11:00:00 AM 42.1031 -82.6279 98° East  Level FlightAware Approximate
Fri 11:00:06 AM 42.0614 -83.1103 87° East 411 473 10,700  Level FAA TRACON SMA TRACON (SMA)
Fri 11:00:27 AM 42.0644 -83.0536 86° East 416 479 11,700 2,634 Climbing FAA TRACON SMA TRACON (SMA)
Fri 11:00:47 AM 42.0667 -83.0014 87° East 424 488 12,500 2,550 Climbing FAA TRACON SMA TRACON (SMA)
Fri 11:01:07 AM 42.0689 -82.9394 87° East 431 496 13,400 2,400 Climbing FAA TRACON SMA TRACON (SMA)
Fri 11:01:27 AM 42.0708 -82.8919 87° East 440 506 14,100 2,250 Climbing FAA TRACON SMA TRACON (SMA)
Fri 11:01:47 AM 42.0733 -82.8364 87° East 449 517 14,900 2,400 Climbing FAA TRACON SMA TRACON (SMA)
Fri 11:02:07 AM 42.0761 -82.7706 87° East 468 539 15,700 1,692 Climbing FAA TRACON SMA TRACON (SMA)
Fri 11:02:26 AM 42.0789 -82.7242 85° East 466 536 16,000 462 Climbing FAA TRACON SMA TRACON (SMA)
Fri 11:02:46 AM 42.0803 -82.6628 88° East 469 540 16,000 439 Level FAA TRACON SMA TRACON (SMA)
Fri 11:03:07 AM 42.0825 -82.5950 87° East 471 542 16,300 1,610 Climbing FAA TRACON SMA TRACON (SMA)
Fri 11:03:27 AM 42.0844 -82.5406 87° East 472 543 17,100 2,100 Climbing FAA TRACON SMA TRACON (SMA)
Fri 11:03:47 AM 42.0847 -82.4864 90° East 473 544 17,700 2,550 Climbing FAA TRACON SMA TRACON (SMA)
Fri 11:04:07 AM 42.0769 -82.4194 99° East 470 541 18,800 2,550 Climbing FAA TRACON SMA TRACON (SMA)
Fri 11:04:27 AM 42.0700 -82.3658 100° East 472 543 19,400 1,650 Climbing FAA TRACON SMA TRACON (SMA)
Fri 11:04:47 AM 42.0622 -82.3119 101° East 475 547 19,900 2,100 Climbing FAA TRACON SMA TRACON (SMA)
Fri 11:05:07 AM 42.0525 -82.2439 101° East 479 551 20,800 2,250 Climbing FAA TRACON SMA TRACON (SMA)
Fri 11:05:27 AM 42.0442 -82.1894 102° East 480 552 21,400 610 Climbing FAA TRACON SMA TRACON (SMA)
Fri 11:06:06 AM 42.0442 -82.1894 225° Southwest 480 552 21,400 941 Level FAA TRACON SMA TRACON (SMA)
Fri 11:07:09 AM 41.9183 -81.9700 128° Southeast 431 496 23,000 1,475 Climbing Cleveland Center
Fri 11:08:08 AM 41.8358 -81.8903 144° Southeast 419 482 24,400 1,563 Climbing Cleveland Center
Fri 11:09:08 AM 41.7431 -81.8019 145° Southeast 419 482 26,100 1,900 Climbing Cleveland Center
Fri 11:10:08 AM 41.6522 -81.7142 144° Southeast 413 475 28,200 1,800 Climbing Cleveland Center
Fri 11:11:08 AM 41.5633 -81.6294 144° Southeast 402 463 29,700 1,400 Climbing Cleveland Center
Fri 11:12:08 AM 41.4661 -81.5364 144° Southeast 396 456 31,000 650 Climbing Cleveland Center
Fri 11:13:08 AM 41.3814 -81.4547 144° Southeast 396 456 31,000  Level Cleveland Center
Fri 11:14:09 AM 41.2944 -81.3708 144° Southeast 391 450 31,000  Level Cleveland Center
Fri 11:15:08 AM 41.2072 -81.2897 145° Southeast 386 444 31,000  Level Cleveland Center
Fri 11:16:08 AM 41.1203 -81.2061 144° Southeast 386 444 31,000  Level Cleveland Center
Fri 11:17:08 AM 41.0414 -81.1336 145° Southeast 386 444 31,000  Level Cleveland Center
Fri 11:18:09 AM 40.9500 -81.0478 145° Southeast 391 450 31,000  Level Cleveland Center
Fri 11:19:08 AM 40.8650 -80.9675 144° Southeast 391 450 31,000  Level Cleveland Center
Fri 11:20:09 AM 40.7756 -80.8819 144° Southeast 391 450 31,000  Level Cleveland Center
Fri 11:21:08 AM 40.6861 -80.7994 145° Southeast 391 450 31,000  Level Cleveland Center
Fri 11:22:08 AM 40.5944 -80.7172 146° Southeast 400 460 31,000  Level Cleveland Center
Fri 11:23:09 AM 40.4967 -80.6267 145° Southeast 400 460 31,000  Level Cleveland Center
Fri 11:24:08 AM 40.4092 -80.5422 144° Southeast 400 460 31,000  Level Cleveland Center
Fri 11:25:08 AM 40.3153 -80.4550 145° Southeast 405 466 31,000  Level Cleveland Center
Fri 11:26:08 AM 40.2253 -80.3736 145° Southeast 405 466 31,000  Level Cleveland Center
Fri 11:27:08 AM 40.1314 -80.2897 146° Southeast 405 466 31,000  Level Cleveland Center
Fri 11:28:08 AM 40.0394 -80.2061 145° Southeast 405 466 31,000 50 Level Cleveland Center
Fri 11:29:08 AM 39.9847 -80.0656 117° Southeast 394 453 31,100  Climbing Cleveland Center
Fri 11:30:55 AM 39.8881 -79.8047 116° Southeast 470 541 31,000 -36 Descending Washington Center
Fri 11:31:55 AM 39.8389 -79.6558 113° Southeast 458 527 31,000 -250 Level Washington Center
Fri 11:32:55 AM 39.7919 -79.5019 112° Southeast 453 521 30,500 -1,500 Descending Washington Center
Fri 11:33:55 AM 39.7450 -79.3456 111° Southeast 453 521 28,000 -2,450 Descending Washington Center
Fri 11:34:55 AM 39.6933 -79.1944 114° Southeast 458 527 25,600 -2,050 Descending Washington Center
Fri 11:35:55 AM 39.6500 -79.0333 109° East 463 533 23,900 -1,600 Descending Washington Center
Fri 11:36:55 AM 39.6128 -78.8697 106° East 463 533 22,400 -1,300 Descending Washington Center
Fri 11:37:55 AM 39.5794 -78.7122 105° East 463 533 21,300 -1,100 Descending Washington Center
Fri 11:38:55 AM 39.5439 -78.5572 107° East 457 526 20,200 -1,700 Descending Washington Center
Fri 11:39:55 AM 39.5119 -78.4133 106° East 441 507 17,900 -2,150 Descending Washington Center
Fri 11:40:55 AM 39.4817 -78.2778 106° East 415 478 15,900 -1,450 Descending Washington Center
Fri 11:41:55 AM 39.4514 -78.1422 106° East 396 456 15,000 -450 Descending Washington Center
Fri 11:42:55 AM 39.4439 -77.9967 94° East 391 450 15,000 -50 Level Washington Center
Fri 11:43:55 AM 39.4425 -77.8542 91° East 397 457 14,900 -550 Descending Washington Center
Fri 11:44:55 AM 39.4408 -77.7092 91° East 397 457 13,900 -1,200 Descending Washington Center
Fri 11:45:55 AM 39.4433 -77.5642 89° East 397 457 12,500 -1,050 Descending Washington Center
Fri 11:46:55 AM 39.4431 -77.4511 90° East 385 443 11,800 -1,050 Descending Washington Center
Fri 11:47:55 AM 39.4469 -77.3303 88° East 354 407 10,400 -1,375 Descending Washington Center
Fri 11:48:31 AM 39.4667 -77.2500 72° East 329 379 9,600 -875 Descending Potomac TRACON
Fri 11:49:31 AM 39.4500 -77.1500 102° East 315 362 9,000 -737 Descending Potomac TRACON
Fri 11:50:25 AM 39.4000 -77.0833 134° Southeast 284 327 8,200 -1,500 Descending Potomac TRACON
Fri 11:51:19 AM 39.3500 -77.0333 142° Southeast 255 293 6,300 -2,316 Descending Potomac TRACON
Fri 11:52:19 AM 39.2833 -76.9833 150° Southeast 246 283 3,800 -1,650 Descending Potomac TRACON
Fri 11:53:19 AM 39.2333 -76.9333 142° Southeast 219 252 3,000 -500 Descending Potomac TRACON
Fri 11:54:19 AM 39.1833 -76.9000 153° Southeast 203 234 2,800 -200 Descending Potomac TRACON

Login

Don't have an account? Register now (free) for customized features, flight alerts, and more!